This is the latest recevied weather packets stored in our database for station/object 9M4GEK-3. If no packets are shown the sender has not sent any weather packets the latest 10 day(s).
| Time | Temp. | Humidity | Pressure | Rain* | Wind** | Luminosity | Snow |
|---|---|---|---|---|---|---|---|
| 1777689285 | 40° C | 43% | 1009.5 hPa | - | - | - | - |
| 1777688385 | 40° C | 44% | 1009.6 hPa | - | - | - | - |
| 1777687484 | 40° C | 47% | 1009.7 hPa | - | - | - | - |
| 1777686585 | 39.44° C | 49% | 1009.6 hPa | - | - | - | - |
| 1777686052 | 39.44° C | 49% | 1009.5 hPa | - | - | - | - |
| 1777685151 | 37.78° C | 53% | 1009.3 hPa | - | - | - | - |
| 1777684251 | 36.67° C | 56% | 1009.1 hPa | - | - | - | - |
| 1777683350 | 35.56° C | 59% | 1008.9 hPa | - | - | - | - |
| 1777682450 | 34.44° C | 61% | 1008.7 hPa | - | - | - | - |
| 1777681550 | 31.67° C | 67% | 1008.5 hPa | - | - | - | - |
| 1777680650 | 27.78° C | 74% | 1008.2 hPa | - | - | - | - |
| 1777679750 | 27.22° C | 76% | 1008.1 hPa | - | - | - | - |
| 1777678849 | 26.67° C | 76% | 1007.9 hPa | - | - | - | - |
| 1777677949 | 26.11° C | 78% | 1007.6 hPa | - | - | - | - |
| 1777677049 | 25.56° C | 79% | 1007.3 hPa | - | - | - | - |
| 1777676149 | 25.56° C | 80% | 1006.8 hPa | - | - | - | - |
| 1777675249 | 25.56° C | 79% | 1006.7 hPa | - | - | - | - |
| 1777674510 | 25.56° C | 79% | 1006.7 hPa | - | - | - | - |
| 1777674365 | 25.56° C | 79% | 1006.7 hPa | - | - | - | - |
| 1777673447 | 25.56° C | 79% | 1006.7 hPa | - | - | - | - |
| 1777672548 | 25.56° C | 79% | 1006.9 hPa | - | - | - | - |
| 1777671648 | 25.56° C | 79% | 1006.8 hPa | - | - | - | - |
| 1777670747 | 25.56° C | 79% | 1006.9 hPa | - | - | - | - |
| 1777669847 | 25.56° C | 79% | 1006.8 hPa | - | - | - | - |
| 1777668948 | 25.56° C | 79% | 1006.9 hPa | - | - | - | - |
* Rain since midnight (hover to see other rain measurements)
** Current wind speed in m/s (hover to see current wind gust speed)